This is the latest recevied weather packets stored in our database for station/object WA1DLZ. If no packets are shown the sender has not sent any weather packets the latest 10 day(s).
| Time | Temp. | Humidity | Pressure | Rain* | Wind** | Luminosity | Snow |
|---|---|---|---|---|---|---|---|
| 1777362604 | 1.67° C | 92% | 1023.2 hPa | 0 mm | - | - | - |
| 1777362304 | 1.67° C | 91% | 1023.2 hPa | 0 mm | - | - | - |
| 1777359904 | 2.22° C | 90% | 1023.3 hPa | 0 mm | - | - | - |
| 1777358704 | 2.78° C | 89% | 1023.4 hPa | 0 mm | - | - | - |
| 1777358404 | 3.33° C | 88% | 1023.6 hPa | 0 mm | - | - | - |
| 1777358104 | 3.33° C | 88% | 1023.6 hPa | 0 mm | - | - | - |
| 1777356604 | 3.89° C | 86% | 1023.7 hPa | 0 mm | - | - | - |
| 1777351805 | 6.67° C | 80% | 1024.1 hPa | 0 mm | - | - | - |
| 1777350004 | 7.22° C | 78% | 1024.1 hPa | 0 mm | - | - | - |
| 1777349704 | 7.22° C | 78% | 1024.1 hPa | 0 mm | - | - | - |
| 1777349402 | 7.22° C | 77% | 1024.1 hPa | 0 mm | - | - | - |
| 1777347303 | 8.33° C | 73% | 1024.1 hPa | 0 mm | - | - | - |
| 1777343402 | 10° C | 69% | 1023.9 hPa | 0 mm | - | - | - |
| 1777342503 | 10.56° C | 65% | 1023.9 hPa | 0 mm | - | - | - |
| 1777341002 | 11.67° C | 61% | 1023.5 hPa | 0 mm | - | - | - |
| 1777338003 | 13.33° C | 57% | 1022.8 hPa | 0 mm | - | - | - |
| 1777336503 | 13.89° C | 60% | 1022.5 hPa | 0 mm | - | - | - |
| 1777335003 | 15° C | 57% | 1022.2 hPa | 0 mm | - | - | - |
| 1777333203 | 16.11° C | 52% | 1021.8 hPa | 0 mm | - | - | - |
| 1777332602 | 16.67° C | 51% | 1021.7 hPa | 0 mm | - | - | - |
| 1777332003 | 17.22° C | 51% | 1021.6 hPa | 0 mm | - | - | - |
| 1777329603 | 21.11° C | 41% | 1021.4 hPa | 0 mm | - | - | - |
| 1777327203 | 23.89° C | 32% | 1021.4 hPa | 0 mm | - | - | - |
| 1777326303 | 23.89° C | 31% | 1021.4 hPa | 0 mm | - | - | - |
| 1777323004 | 23.33° C | 32% | 1021.5 hPa | 0 mm | - | - | - |
* Rain latest hour (hover to see other rain measurements)
** Current wind speed in m/s (hover to see current wind gust speed)